createdAt,value
2023-01-05T00:00:37.691Z,3.70
2023-01-05T00:03:41.158Z,3.57
2023-01-05T00:06:45.781Z,3.87
2023-01-05T00:09:48.719Z,3.33
2023-01-05T00:13:05.490Z,4.17
2023-01-05T00:16:31.051Z,3.63
2023-01-05T00:19:52.000Z,3.93
2023-01-05T00:22:56.349Z,3.90
2023-01-05T00:25:59.236Z,4.00
2023-01-05T00:29:02.165Z,3.83
2023-01-05T00:32:05.075Z,3.60
2023-01-05T00:35:08.863Z,3.63
2023-01-05T00:38:13.339Z,3.73
2023-01-05T00:41:16.195Z,3.80
2023-01-05T00:44:19.124Z,3.30
2023-01-05T00:47:22.015Z,3.87
2023-01-05T00:50:25.051Z,3.63
2023-01-05T00:53:29.522Z,3.53
2023-01-05T00:56:32.426Z,4.07
2023-01-05T00:59:35.416Z,3.70
2023-01-05T01:02:38.330Z,4.37
2023-01-05T01:05:41.311Z,4.10
2023-01-05T01:08:45.767Z,3.97
2023-01-05T01:11:48.996Z,3.90
2023-01-05T01:14:52.148Z,4.23
2023-01-05T01:17:55.204Z,4.10
2023-01-05T01:20:58.538Z,4.03
2023-01-05T01:24:02.861Z,3.97
2023-01-05T01:27:05.857Z,4.40
2023-01-05T01:30:10.386Z,4.67
2023-01-05T01:33:13.389Z,4.27
2023-01-05T01:36:16.360Z,3.90
2023-01-05T01:39:20.633Z,3.77
2023-01-05T01:42:24.338Z,3.63
2023-01-05T01:45:27.252Z,4.33
2023-01-05T01:48:30.303Z,4.00
2023-01-05T01:51:36.891Z,4.10
2023-01-05T01:54:41.316Z,3.90
2023-01-05T01:57:46.072Z,4.33
2023-01-05T02:00:49.223Z,3.87
2023-01-05T02:03:52.382Z,3.70
2023-01-05T02:06:55.382Z,3.50
2023-01-05T02:09:59.945Z,4.30
2023-01-05T02:13:12.909Z,3.70
2023-01-05T02:16:25.731Z,3.87
2023-01-05T02:20:22.132Z,3.80
2023-01-05T02:23:54.988Z,3.50
2023-01-05T02:27:28.708Z,3.23
2023-01-05T02:31:01.639Z,3.57
2023-01-05T02:34:15.597Z,4.17
2023-01-05T02:37:25.725Z,3.60
2023-01-05T02:40:34.098Z,3.40
2023-01-05T02:43:37.058Z,3.50
2023-01-05T02:46:41.421Z,3.30
2023-01-05T02:49:44.413Z,4.13
2023-01-05T02:52:57.410Z,3.80
2023-01-05T02:56:06.895Z,3.57
2023-01-05T02:59:15.726Z,3.50
2023-01-05T03:02:23.561Z,4.00
2023-01-05T03:05:32.433Z,3.90
2023-01-05T03:08:40.313Z,3.83
2023-01-05T03:12:01.983Z,3.10
2023-01-05T03:15:10.429Z,3.80
2023-01-05T03:18:18.095Z,3.53
2023-01-05T03:21:21.682Z,3.97
2023-01-05T03:24:41.934Z,3.77
2023-01-05T03:28:04.925Z,3.37
2023-01-05T03:31:29.230Z,3.40
2023-01-05T03:35:03.001Z,3.93
2023-01-05T03:38:17.649Z,4.00
2023-01-05T03:41:23.335Z,3.90
2023-01-05T03:44:26.385Z,4.10
2023-01-05T03:47:29.413Z,3.90
2023-01-05T03:50:33.722Z,3.30
2023-01-05T03:53:36.749Z,3.30
2023-01-05T03:56:39.685Z,3.30
2023-01-05T03:59:42.557Z,3.33
2023-01-05T04:02:45.549Z,3.40
2023-01-05T04:05:50.038Z,3.07
2023-01-05T04:08:52.962Z,3.73
2023-01-05T04:11:55.923Z,2.97
2023-01-05T04:14:58.975Z,3.00
2023-01-05T04:18:01.968Z,3.20
2023-01-05T04:21:07.238Z,4.07
2023-01-05T04:24:10.986Z,3.00
2023-01-05T04:27:14.050Z,3.30
2023-01-05T04:30:17.084Z,3.17
2023-01-05T04:33:20.748Z,3.00
2023-01-05T04:36:25.025Z,3.30
2023-01-05T04:39:27.948Z,3.10
2023-01-05T04:42:30.887Z,3.00
2023-01-05T04:45:33.915Z,3.10
2023-01-05T04:48:36.838Z,3.40
2023-01-05T04:51:41.181Z,3.30
2023-01-05T04:54:44.126Z,3.10
2023-01-05T04:57:47.400Z,3.17
2023-01-05T05:00:51.119Z,3.30
2023-01-05T05:03:54.186Z,3.37
2023-01-05T05:06:58.771Z,2.93
2023-01-05T05:10:01.680Z,3.30
2023-01-05T05:13:04.703Z,2.63
2023-01-05T05:16:08.849Z,2.93
2023-01-05T05:19:11.922Z,2.90
2023-01-05T05:22:16.200Z,3.13
2023-01-05T05:25:19.379Z,3.43
2023-01-05T05:28:27.978Z,3.03
2023-01-05T05:31:30.941Z,3.40
2023-01-05T05:34:33.930Z,3.30
2023-01-05T05:37:38.208Z,3.60
2023-01-05T05:40:41.152Z,3.67
2023-01-05T05:43:44.065Z,3.47
2023-01-05T05:46:47.013Z,3.40
2023-01-05T05:49:49.991Z,3.90
2023-01-05T05:52:54.243Z,3.53
2023-01-05T05:55:57.149Z,3.10
2023-01-05T05:59:01.856Z,3.00
2023-01-05T06:02:05.120Z,3.67
2023-01-05T06:05:09.075Z,3.40
2023-01-05T06:08:13.379Z,3.67
2023-01-05T06:11:16.287Z,3.50
2023-01-05T06:14:20.377Z,2.80
2023-01-05T06:17:23.307Z,2.50
2023-01-05T06:20:26.219Z,2.47
2023-01-05T06:23:30.740Z,2.50
2023-01-05T06:26:33.750Z,2.57
2023-01-05T06:29:36.868Z,2.50
2023-01-05T06:32:39.814Z,2.30
2023-01-05T06:35:42.746Z,2.73
2023-01-05T06:38:47.262Z,2.73
2023-01-05T06:41:50.213Z,2.70
2023-01-05T06:44:53.224Z,2.63
2023-01-05T06:47:57.525Z,2.70
2023-01-05T06:51:00.571Z,2.90
2023-01-05T06:54:05.011Z,2.50
2023-01-05T06:57:08.131Z,2.90
2023-01-05T07:00:13.578Z,2.90
2023-01-05T07:03:16.472Z,2.50
2023-01-05T07:06:19.639Z,2.90
2023-01-05T07:09:23.953Z,2.80
2023-01-05T07:12:27.154Z,2.57
2023-01-05T07:15:30.070Z,2.60
2023-01-05T07:18:33.023Z,2.40
2023-01-05T07:21:35.940Z,2.80
2023-01-05T07:24:40.286Z,2.43
2023-01-05T07:27:43.221Z,2.60
2023-01-05T07:30:52.314Z,2.60
2023-01-05T07:33:55.293Z,2.40
2023-01-05T07:36:58.300Z,2.40
2023-01-05T07:40:02.634Z,2.40
2023-01-05T07:43:05.625Z,2.40
2023-01-05T07:46:08.683Z,2.50
2023-01-05T07:49:11.712Z,2.47
2023-01-05T07:52:14.813Z,2.23
2023-01-05T07:55:19.138Z,2.50
2023-01-05T07:58:22.033Z,2.17
2023-01-05T08:01:25.032Z,2.40
2023-01-05T08:04:28.217Z,2.20
2023-01-05T08:07:31.201Z,2.47
2023-01-05T08:10:35.607Z,2.40
2023-01-05T08:13:52.671Z,2.33
2023-01-05T08:16:55.653Z,2.30
2023-01-05T08:19:58.582Z,2.17
2023-01-05T08:23:01.558Z,2.60
2023-01-05T08:26:07.673Z,2.33
2023-01-05T08:29:10.616Z,2.40
2023-01-05T08:32:13.637Z,2.20
2023-01-05T08:35:16.637Z,2.43
2023-01-05T08:38:22.250Z,2.13
2023-01-05T08:41:28.547Z,2.20
2023-01-05T08:44:31.492Z,2.40
2023-01-05T08:47:34.517Z,2.50
2023-01-05T08:50:38.399Z,2.10
2023-01-05T08:53:41.440Z,2.10
2023-01-05T08:56:45.799Z,2.23
2023-01-05T08:59:48.723Z,2.63
2023-01-05T09:02:51.756Z,2.57
2023-01-05T09:05:59.294Z,2.60
2023-01-05T09:09:02.260Z,2.37
2023-01-05T09:12:07.679Z,2.30
2023-01-05T09:15:11.304Z,2.20
2023-01-05T09:18:14.212Z,2.30
2023-01-05T09:21:17.326Z,2.20
2023-01-05T09:24:20.554Z,2.50
2023-01-05T09:27:24.924Z,2.23
2023-01-05T09:30:27.873Z,2.50
2023-01-05T09:33:31.590Z,2.43
2023-01-05T09:36:34.692Z,2.40
2023-01-05T09:39:37.709Z,2.40
2023-01-05T09:42:46.872Z,2.40
2023-01-05T09:45:51.058Z,2.50
2023-01-05T09:48:58.075Z,2.43
2023-01-05T09:52:03.485Z,2.43
2023-01-05T09:55:15.144Z,2.43
2023-01-05T09:58:26.409Z,2.60
2023-01-05T10:01:34.379Z,2.57
2023-01-05T10:04:37.558Z,2.57
2023-01-05T10:07:45.142Z,2.60
2023-01-05T10:11:05.947Z,2.87
2023-01-05T10:14:14.833Z,2.77
2023-01-05T10:20:58.453Z,2.77
2023-01-05T10:24:19.245Z,2.50
2023-01-05T10:27:28.606Z,2.60
2023-01-05T10:30:49.481Z,2.83
2023-01-05T10:33:58.995Z,2.60
2023-01-05T10:37:20.633Z,2.60
2023-01-05T10:40:32.295Z,2.60
2023-01-05T10:44:02.843Z,2.53
2023-01-05T10:47:11.135Z,3.20
2023-01-05T10:50:32.667Z,2.70
2023-01-05T10:53:37.872Z,2.93
2023-01-05T10:56:40.942Z,3.10
2023-01-05T10:59:56.513Z,3.00
2023-01-05T11:03:04.179Z,3.00
2023-01-05T11:06:09.107Z,2.60
2023-01-05T11:09:22.005Z,2.87
2023-01-05T11:12:26.793Z,2.70
2023-01-05T11:15:31.547Z,2.70
2023-01-05T11:18:48.348Z,2.60
2023-01-05T11:21:54.086Z,3.00
2023-01-05T11:25:26.613Z,2.90
2023-01-05T11:28:30.387Z,2.73
2023-01-05T11:31:36.533Z,2.70
2023-01-05T11:34:43.806Z,2.70
2023-01-05T11:37:47.167Z,2.90
2023-01-05T11:40:50.174Z,2.97
2023-01-05T11:43:54.433Z,2.90
2023-01-05T11:46:57.435Z,2.80
2023-01-05T11:50:09.539Z,3.30
2023-01-05T11:53:26.011Z,3.03
2023-01-05T11:56:28.992Z,3.17
2023-01-05T11:59:31.895Z,2.60
2023-01-05T12:03:03.301Z,3.00
2023-01-05T12:06:18.436Z,3.37
2023-01-05T12:09:32.656Z,2.87
2023-01-05T12:12:44.368Z,2.90
2023-01-05T12:16:10.255Z,2.97
2023-01-05T12:19:45.726Z,2.93
2023-01-05T12:23:16.324Z,2.83
2023-01-05T12:26:24.416Z,2.80
2023-01-05T12:34:12.687Z,3.10
2023-01-05T12:37:30.828Z,2.70
2023-01-05T12:40:48.568Z,3.27
2023-01-05T12:44:05.298Z,2.53
2023-01-05T12:47:25.892Z,2.70
2023-01-05T12:50:36.379Z,2.77
2023-01-05T12:53:45.816Z,2.70
2023-01-05T12:56:54.569Z,2.67
2023-01-05T13:00:01.746Z,2.80
2023-01-05T13:03:11.283Z,2.70
2023-01-05T13:06:18.590Z,2.57
2023-01-05T13:09:25.839Z,2.53
2023-01-05T13:12:30.385Z,2.10
2023-01-05T13:15:40.675Z,3.00
2023-01-05T13:18:48.118Z,2.60
2023-01-05T13:21:53.105Z,2.77
2023-01-05T13:25:00.877Z,2.67
2023-01-05T13:31:34.319Z,2.77
2023-01-05T13:34:58.508Z,2.57
2023-01-05T13:38:25.983Z,2.60
2023-01-05T13:41:45.774Z,2.73
2023-01-05T13:45:22.791Z,2.57
2023-01-05T13:49:03.301Z,2.90
2023-01-05T13:52:18.403Z,3.37
2023-01-05T13:55:26.254Z,2.93
2023-01-05T14:01:47.646Z,2.50
2023-01-05T14:04:52.145Z,2.70
2023-01-05T14:07:56.622Z,2.60
2023-01-05T14:11:12.108Z,2.67
2023-01-05T14:17:55.536Z,2.50
2023-01-05T14:21:01.501Z,2.80
2023-01-05T14:24:04.462Z,2.80
2023-01-05T14:27:09.919Z,2.90
2023-01-05T14:30:23.844Z,2.70
2023-01-05T14:33:26.916Z,2.90
2023-01-05T14:36:35.973Z,2.70
2023-01-05T14:39:44.959Z,2.67
2023-01-05T14:42:50.354Z,2.70
2023-01-05T14:46:03.698Z,2.63
2023-01-05T14:49:11.267Z,2.97
2023-01-05T14:52:22.162Z,2.70
2023-01-05T14:55:40.506Z,2.73
2023-01-05T14:59:15.767Z,2.70
2023-01-05T15:02:23.213Z,2.93
2023-01-05T15:05:27.544Z,2.70
2023-01-05T15:09:08.362Z,3.00
2023-01-05T15:12:35.657Z,3.03
2023-01-05T15:15:46.796Z,2.53
2023-01-05T15:19:18.423Z,2.83
2023-01-05T15:22:39.030Z,3.00
2023-01-05T15:26:08.473Z,2.60
2023-01-05T15:29:37.162Z,2.80
2023-01-05T15:32:43.458Z,2.80
2023-01-05T15:35:53.343Z,3.40
2023-01-05T15:38:57.639Z,3.00
2023-01-05T15:42:07.374Z,2.80
2023-01-05T15:45:19.276Z,3.03
2023-01-05T15:48:28.443Z,2.90
2023-01-05T15:51:33.652Z,2.90
2023-01-05T15:54:36.753Z,2.87
2023-01-05T15:57:41.456Z,2.77
2023-01-05T16:00:44.469Z,3.00
2023-01-05T16:03:48.613Z,3.03
2023-01-05T16:06:58.317Z,3.07
2023-01-05T16:10:01.512Z,3.03
2023-01-05T16:13:12.278Z,2.83
2023-01-05T16:16:49.482Z,3.50
2023-01-05T16:19:47.119Z,3.23
2023-01-05T16:22:57.935Z,3.30
2023-01-05T16:26:05.047Z,3.57
2023-01-05T16:29:22.918Z,3.10
2023-01-05T16:32:36.117Z,3.30
2023-01-05T16:35:44.525Z,3.60
2023-01-05T16:38:47.703Z,3.50
2023-01-05T16:42:08.059Z,3.40
2023-01-05T16:45:20.814Z,3.00
2023-01-05T16:48:47.998Z,3.17
2023-01-05T16:51:51.465Z,3.47
2023-01-05T16:55:27.314Z,3.17
2023-01-05T16:58:36.505Z,3.40
2023-01-05T17:01:44.637Z,2.90
2023-01-05T17:04:49.104Z,3.23
2023-01-05T17:08:05.453Z,3.00
2023-01-05T17:11:12.643Z,3.50
2023-01-05T17:14:16.247Z,3.10
2023-01-05T17:17:20.595Z,3.20
2023-01-05T17:20:25.679Z,3.30
2023-01-05T17:23:32.046Z,3.10
2023-01-05T17:26:37.999Z,3.03
2023-01-05T17:29:40.935Z,3.13
2023-01-05T17:32:45.236Z,3.10
2023-01-05T17:35:49.176Z,3.13
2023-01-05T17:38:52.217Z,3.13
2023-01-05T17:42:15.382Z,3.13
2023-01-05T17:45:20.998Z,3.17
2023-01-05T17:48:25.493Z,2.90
2023-01-05T17:51:29.064Z,3.57
2023-01-05T17:54:32.000Z,3.40
2023-01-05T17:57:34.922Z,3.13
2023-01-05T18:00:41.750Z,3.80
2023-01-05T18:06:54.093Z,3.30
2023-01-05T18:09:57.082Z,3.60
2023-01-05T18:12:59.985Z,3.40
2023-01-05T18:16:07.488Z,3.67
2023-01-05T18:19:11.821Z,3.40
2023-01-05T18:22:15.598Z,3.50
2023-01-05T18:25:18.998Z,3.60
2023-01-05T18:28:21.978Z,3.50
2023-01-05T18:31:25.805Z,3.77
2023-01-05T18:34:30.498Z,3.77
2023-01-05T18:37:33.894Z,3.60
2023-01-05T18:40:36.882Z,3.83
2023-01-05T18:43:40.347Z,3.97
2023-01-05T18:46:44.352Z,3.50
2023-01-05T18:49:48.747Z,3.80
2023-01-05T18:52:51.717Z,3.90
2023-01-05T18:55:54.699Z,3.60
2023-01-05T18:58:57.689Z,3.70
2023-01-05T19:02:00.698Z,4.10
2023-01-05T19:05:05.783Z,3.70
2023-01-05T19:08:09.128Z,3.60
2023-01-05T19:11:13.988Z,3.57
2023-01-05T19:14:17.884Z,4.43
2023-01-05T19:17:20.813Z,4.07
2023-01-05T19:20:25.155Z,3.40
2023-01-05T19:23:28.178Z,3.83
2023-01-05T19:26:32.824Z,3.57
2023-01-05T19:29:35.753Z,3.80
2023-01-05T19:32:38.642Z,3.80
2023-01-05T19:35:42.927Z,3.50
2023-01-05T19:38:46.618Z,3.37
2023-01-05T19:41:51.716Z,4.00
2023-01-05T19:44:54.638Z,3.30
2023-01-05T19:47:57.631Z,4.13
2023-01-05T19:51:03.760Z,4.10
2023-01-05T19:54:07.007Z,3.60
2023-01-05T19:57:10.128Z,3.70
2023-01-05T20:00:14.802Z,3.87
2023-01-05T20:03:17.889Z,3.53
2023-01-05T20:06:24.610Z,3.90
2023-01-05T20:09:27.553Z,3.73
2023-01-05T20:12:30.507Z,3.80
2023-01-05T20:15:35.249Z,4.67
2023-01-05T20:18:39.286Z,3.53
2023-01-05T20:21:43.851Z,3.63
2023-01-05T20:24:46.791Z,3.33
2023-01-05T20:27:49.724Z,3.80
2023-01-05T20:30:52.694Z,3.53
2023-01-05T20:33:57.588Z,3.60
2023-01-05T20:37:03.832Z,3.80
2023-01-05T20:40:07.631Z,3.20
2023-01-05T20:43:10.600Z,3.93
2023-01-05T20:46:14.491Z,3.70
2023-01-05T20:49:18.294Z,3.67
2023-01-05T20:52:22.618Z,3.50
2023-01-05T20:55:25.562Z,3.57
2023-01-05T20:58:28.507Z,3.60
2023-01-05T21:01:31.549Z,3.40
2023-01-05T21:04:34.548Z,3.20
2023-01-05T21:07:38.975Z,3.53
2023-01-05T21:10:41.866Z,3.60
2023-01-05T21:13:45.807Z,3.40
2023-01-05T21:16:51.081Z,4.17
2023-01-05T21:19:54.186Z,3.43
2023-01-05T21:22:58.503Z,3.53
2023-01-05T21:26:06.915Z,3.90
2023-01-05T21:29:13.838Z,3.77
2023-01-05T21:32:16.839Z,3.40
2023-01-05T21:35:19.819Z,3.20
2023-01-05T21:38:24.657Z,3.43
2023-01-05T21:41:45.320Z,3.60
2023-01-05T21:44:48.326Z,3.70
2023-01-05T21:47:57.431Z,4.33
2023-01-05T21:51:18.144Z,4.20
2023-01-05T21:54:41.356Z,3.27
2023-01-05T21:57:44.307Z,3.67
2023-01-05T22:00:47.332Z,3.90
2023-01-05T22:03:50.448Z,3.70
2023-01-05T22:06:53.420Z,3.43
2023-01-05T22:09:57.781Z,3.77
2023-01-05T22:13:00.708Z,3.90
2023-01-05T22:16:03.905Z,3.60
2023-01-05T22:19:07.124Z,3.80
2023-01-05T22:22:10.033Z,3.67
2023-01-05T22:25:14.636Z,3.30
2023-01-05T22:28:17.522Z,3.53
2023-01-05T22:31:22.924Z,3.63
2023-01-05T22:34:26.090Z,3.40
2023-01-05T22:37:29.076Z,3.37
2023-01-05T22:40:33.447Z,3.70
2023-01-05T22:43:37.997Z,3.20
2023-01-05T22:46:40.941Z,3.20
2023-01-05T22:49:43.996Z,3.40
2023-01-05T22:52:46.906Z,3.47
2023-01-05T22:55:51.233Z,3.07
2023-01-05T22:58:55.251Z,3.33
2023-01-05T23:01:58.270Z,3.57
2023-01-05T23:05:03.132Z,3.30
2023-01-05T23:08:06.934Z,3.77
2023-01-05T23:11:12.932Z,3.90
2023-01-05T23:14:18.341Z,3.67
2023-01-05T23:17:21.302Z,4.73
2023-01-05T23:20:25.123Z,4.63
2023-01-05T23:23:28.480Z,4.60
2023-01-05T23:26:32.793Z,5.23
2023-01-05T23:29:35.808Z,5.50
2023-01-05T23:32:38.748Z,5.23
2023-01-05T23:35:43.175Z,5.33
2023-01-05T23:38:46.747Z,5.77
2023-01-05T23:41:51.037Z,4.70
2023-01-05T23:44:54.015Z,4.80
2023-01-05T23:47:57.481Z,4.43
2023-01-05T23:51:00.556Z,4.07
2023-01-05T23:54:03.540Z,4.70
2023-01-05T23:57:08.024Z,4.60
